Time;durP1;ratioP1;P1;durP2;ratioP2;P2;SDS_P1;SDS_P2;PMS_P1;PMS_P2;Temp;Humidity;BMP_temperature;BMP_pressure;BME280_temperature;BME280_humidity;BME280_pressure;Samples;Min_cycle;Max_cycle;Signal;HPM_P1;HPM_P2
2023/07/16 00:00:33;;;;;;;4.20;3.00;;;;;;;24.96;37.60;100054.00;110990;1212;99924;-63
2023/07/16 00:02:58;;;;;;;6.80;3.40;;;;;;;24.94;37.64;100054.44;110818;1214;138543;-63
2023/07/16 00:05:24;;;;;;;6.40;3.50;;;;;;;24.89;37.54;100049.30;111020;1209;99055;-63
2023/07/16 00:07:49;;;;;;;8.00;3.00;;;;;;;24.85;37.75;100045.70;110947;1213;138720;-63
2023/07/16 00:10:15;;;;;;;6.30;3.20;;;;;;;24.80;37.79;100044.31;111002;1214;99397;-62
2023/07/16 00:12:40;;;;;;;6.20;3.60;;;;;;;24.73;37.86;100042.70;110882;1212;98811;-62
2023/07/16 00:15:06;;;;;;;4.60;3.50;;;;;;;24.70;37.93;100041.50;110891;1212;138115;-62
2023/07/16 00:17:33;;;;;;;8.00;3.50;;;;;;;24.66;38.01;100035.67;110994;1214;98040;-63
2023/07/16 00:19:58;;;;;;;15.80;4.20;;;;;;;24.62;38.21;100036.49;110811;1212;139936;-62
2023/07/16 00:22:23;;;;;;;9.10;4.30;;;;;;;24.57;38.25;100034.96;110970;1208;99015;-63
2023/07/16 00:24:49;;;;;;;8.40;4.60;;;;;;;24.53;38.28;100027.77;110972;1214;99038;-62
2023/07/16 00:27:14;;;;;;;5.80;3.60;;;;;;;24.48;38.55;100026.12;110975;1214;138780;-62
2023/07/16 00:29:40;;;;;;;6.50;3.30;;;;;;;24.44;38.70;100021.52;110918;1208;99408;-62
2023/07/16 00:32:05;;;;;;;5.00;3.30;;;;;;;24.41;38.61;100024.82;110783;1212;140469;-62
2023/07/16 00:34:31;;;;;;;4.10;3.30;;;;;;;24.39;38.79;100017.29;110965;1214;99048;-62
2023/07/16 00:37:01;;;;;;;6.60;3.80;;;;;;;24.38;38.86;100009.98;110927;1223;98942;-62
2023/07/16 00:39:28;;;;;;;6.60;3.60;;;;;;;24.35;38.94;100011.73;110822;1212;138229;-62
2023/07/16 00:41:53;;;;;;;5.60;3.00;;;;;;;24.33;39.00;100015.27;110933;1214;99130;-62
2023/07/16 00:44:18;;;;;;;8.50;3.50;;;;;;;24.30;38.91;100013.55;110897;1213;138065;-62
2023/07/16 00:46:43;;;;;;;5.00;3.50;;;;;;;24.28;38.98;100011.80;110941;1211;98900;-62
2023/07/16 00:49:08;;;;;;;6.50;4.60;;;;;;;24.25;39.03;100012.29;110901;1210;99032;-62
2023/07/16 00:51:34;;;;;;;9.00;4.90;;;;;;;24.22;39.41;100006.77;110897;1212;138670;-62
2023/07/16 00:54:00;;;;;;;6.80;4.20;;;;;;;24.20;39.35;100005.12;111012;1211;98203;-62
2023/07/16 00:56:27;;;;;;;6.90;3.50;;;;;;;24.18;39.37;100009.05;110921;1214;138272;-62
2023/07/16 00:58:52;;;;;;;4.50;3.50;;;;;;;24.15;39.61;100007.20;110923;1214;98932;-62
2023/07/16 01:01:17;;;;;;;7.20;4.00;;;;;;;24.11;39.78;100010.68;110966;1213;99359;-62
2023/07/16 01:03:43;;;;;;;8.40;3.70;;;;;;;24.09;39.84;100013.17;110912;1210;137894;-62
2023/07/16 01:06:21;;;;;;;7.20;3.90;;;;;;;24.05;39.71;100016.90;110861;1214;99056;-62
2023/07/16 01:08:58;;;;;;;6.60;4.00;;;;;;;24.00;40.08;100017.23;110672;1213;139959;-62
2023/07/16 01:11:24;;;;;;;6.60;4.10;;;;;;;23.96;40.11;100015.31;111016;1212;99125;-62
2023/07/16 01:13:50;;;;;;;6.70;3.90;;;;;;;23.92;40.08;100017.32;110803;1209;139012;-62
2023/07/16 01:16:23;;;;;;;5.70;3.70;;;;;;;23.90;40.27;100021.77;111089;1214;99036;-62
2023/07/16 01:18:49;;;;;;;6.20;4.40;;;;;;;23.87;40.29;100025.28;110885;1214;98930;-62
2023/07/16 01:21:16;;;;;;;7.90;3.60;;;;;;;23.81;40.25;100031.92;110738;1212;140937;-62
2023/07/16 01:24:00;;;;;;;10.20;4.20;;;;;;;23.75;40.53;100033.34;110977;1209;99045;-62
2023/07/16 01:26:44;;;;;;;9.90;4.40;;;;;;;23.67;40.83;100028.49;110907;1209;140231;-62
2023/07/16 01:29:27;;;;;;;9.70;3.70;;;;;;;23.61;40.86;100029.98;110940;1212;99227;-62
2023/07/16 01:31:55;;;;;;;11.20;4.20;;;;;;;23.57;40.86;100027.91;110795;1208;138518;-62
2023/07/16 01:34:21;;;;;;;9.60;5.40;;;;;;;23.53;41.14;100027.60;111061;1214;99444;-62
2023/07/16 01:36:46;;;;;;;11.40;6.90;;;;;;;23.50;41.25;100025.73;110919;1212;108509;-62
2023/07/16 01:39:12;;;;;;;7.00;5.10;;;;;;;23.45;41.35;100023.89;110877;1208;139460;-62
2023/07/16 01:41:37;;;;;;;8.90;4.40;;;;;;;23.41;41.54;100020.54;110845;1210;98987;-62
2023/07/16 01:44:03;;;;;;;10.40;4.50;;;;;;;23.37;41.63;100018.48;110901;1212;138347;-62
2023/07/16 01:46:29;;;;;;;9.60;4.00;;;;;;;23.31;42.00;100022.52;111025;1211;99050;-62
2023/07/16 01:48:55;;;;;;;4.70;3.60;;;;;;;23.27;41.76;100020.94;110948;1211;98984;-62
2023/07/16 01:51:20;;;;;;;10.90;4.50;;;;;;;23.25;42.18;100022.98;110749;1214;139553;-62
2023/07/16 01:53:46;;;;;;;12.10;4.10;;;;;;;23.22;42.47;100022.79;110840;1214;98975;-63
2023/07/16 01:56:12;;;;;;;7.20;4.20;;;;;;;23.20;42.62;100018.09;110807;1220;140499;-62
2023/07/16 01:58:37;;;;;;;8.20;4.60;;;;;;;23.17;42.51;100012.75;110933;1214;98969;-62
2023/07/16 02:01:02;;;;;;;12.60;4.00;;;;;;;23.11;42.76;100004.58;110890;1209;99548;-62
2023/07/16 02:03:27;;;;;;;7.00;4.00;;;;;;;23.06;42.56;99995.29;110786;1210;138916;-62
2023/07/16 02:05:53;;;;;;;7.20;4.10;;;;;;;23.02;42.86;99991.74;110926;1212;98979;-62
2023/07/16 02:08:18;;;;;;;6.60;4.00;;;;;;;22.97;43.05;99987.63;110806;1214;139740;-64
2023/07/16 02:10:44;;;;;;;7.50;4.10;;;;;;;22.92;43.10;99993.67;110843;1210;98520;-62
2023/07/16 02:13:09;;;;;;;14.10;4.30;;;;;;;22.88;43.30;100000.65;111009;1215;98994;-62
2023/07/16 02:15:35;;;;;;;7.30;4.30;;;;;;;22.89;43.62;99996.93;110791;1210;138743;-62
2023/07/16 02:18:00;;;;;;;7.70;3.60;;;;;;;22.91;43.66;99993.66;110956;1212;99043;-62
2023/07/16 02:20:25;;;;;;;10.00;4.00;;;;;;;22.90;43.86;99987.48;110781;1212;138183;-62
2023/07/16 02:22:50;;;;;;;12.90;4.00;;;;;;;22.91;43.79;99974.91;110959;1209;98925;-62
2023/07/16 02:25:16;;;;;;;5.10;3.70;;;;;;;22.89;44.22;99971.38;110884;1212;99018;-62
2023/07/16 02:27:41;;;;;;;7.10;3.90;;;;;;;22.88;44.34;99970.04;110813;1209;139381;-62
2023/07/16 02:30:07;;;;;;;8.70;4.20;;;;;;;22.88;44.46;99971.35;110852;1212;99062;-62
2023/07/16 02:32:33;;;;;;;8.70;4.60;;;;;;;22.88;44.46;99970.66;110976;1209;138400;-62
2023/07/16 02:34:58;;;;;;;7.10;4.60;;;;;;;22.85;44.51;99966.52;110988;1208;99027;-62
2023/07/16 02:37:23;;;;;;;7.50;4.00;;;;;;;22.83;44.78;99961.84;110850;1212;139150;-62
2023/07/16 02:39:49;;;;;;;5.90;4.50;;;;;;;22.83;44.96;99963.48;110833;1212;99515;-63
2023/07/16 02:42:14;;;;;;;8.00;4.30;;;;;;;22.84;45.13;99962.50;110771;1212;99321;-62
2023/07/16 02:44:41;;;;;;;6.50;4.50;;;;;;;22.82;45.30;99966.70;110734;1212;138448;-64
2023/07/16 02:47:07;;;;;;;6.00;4.10;;;;;;;22.79;45.61;99973.59;110870;1209;99467;-64
2023/07/16 02:49:33;;;;;;;5.20;4.00;;;;;;;22.75;45.72;99981.20;110865;1216;138905;-64
2023/07/16 02:51:58;;;;;;;8.10;4.20;;;;;;;22.74;45.91;99988.64;110790;1212;98957;-64
2023/07/16 02:54:23;;;;;;;6.70;4.30;;;;;;;22.73;45.94;99994.41;110914;1212;100419;-65
2023/07/16 02:56:48;;;;;;;7.30;4.20;;;;;;;22.71;46.23;99997.39;110720;1212;140157;-64
2023/07/16 02:59:14;;;;;;;6.60;4.10;;;;;;;22.69;46.47;100000.14;110913;1210;99038;-62
2023/07/16 03:01:39;;;;;;;10.00;4.70;;;;;;;22.67;46.55;100000.48;110715;1209;138914;-61
2023/07/16 03:04:04;;;;;;;4.70;4.00;;;;;;;22.66;46.78;99994.42;110890;1210;99037;-62
2023/07/16 03:06:29;;;;;;;8.20;4.80;;;;;;;22.66;46.93;99998.55;110946;1209;99225;-61
2023/07/16 03:08:55;;;;;;;6.40;4.30;;;;;;;22.66;46.98;100005.11;110716;1212;138516;-64
2023/07/16 03:11:20;;;;;;;5.90;4.30;;;;;;;22.65;47.00;100016.37;110907;1210;98937;-64
2023/07/16 03:13:45;;;;;;;9.20;4.10;;;;;;;22.60;47.04;100031.39;110759;1212;139354;-64
2023/07/16 03:16:10;;;;;;;11.40;4.70;;;;;;;22.53;47.33;100046.56;110832;1212;100357;-64
2023/07/16 03:18:36;;;;;;;5.00;4.00;;;;;;;22.49;47.35;100062.95;110958;1212;99613;-64
2023/07/16 03:21:02;;;;;;;6.90;4.10;;;;;;;22.46;47.77;100074.77;110733;1210;138055;-64
2023/07/16 03:23:27;;;;;;;8.00;3.90;;;;;;;22.43;47.67;100081.90;110937;1212;99095;-64
2023/07/16 03:25:52;;;;;;;6.60;4.40;;;;;;;22.38;47.95;100079.77;110811;1209;139635;-64
2023/07/16 03:28:18;;;;;;;8.80;4.20;;;;;;;22.37;48.31;100075.77;110916;1210;99080;-65
2023/07/16 03:30:47;;;;;;;5.60;4.00;;;;;;;22.36;48.48;100079.24;110838;1209;98834;-64
2023/07/16 03:33:13;;;;;;;6.40;4.70;;;;;;;22.38;48.72;100094.41;110925;1215;138779;-61
2023/07/16 03:35:38;;;;;;;5.00;4.00;;;;;;;22.36;49.04;100098.36;110846;1212;98922;-63
2023/07/16 03:38:03;;;;;;;6.90;5.40;;;;;;;22.35;49.23;100100.42;110812;1212;140125;-63
2023/07/16 03:40:30;;;;;;;8.30;4.50;;;;;;;22.34;49.42;100096.87;110812;1209;99813;-63
2023/07/16 03:42:55;;;;;;;6.80;4.40;;;;;;;22.35;49.41;100099.98;110762;1215;99348;-63
2023/07/16 03:45:21;;;;;;;8.10;4.80;;;;;;;22.35;49.87;100106.98;110798;1210;140386;-64
2023/07/16 03:47:46;;;;;;;9.30;4.40;;;;;;;22.37;49.94;100119.80;110831;1212;99472;-63
2023/07/16 03:50:11;;;;;;;9.30;5.40;;;;;;;22.37;50.24;100121.91;110778;1223;140544;-63
2023/07/16 03:52:36;;;;;;;5.40;4.10;;;;;;;22.36;50.44;100123.85;110862;1212;99053;-63
2023/07/16 03:55:02;;;;;;;6.10;4.20;;;;;;;22.37;50.65;100121.78;110875;1209;99018;-63
2023/07/16 03:57:28;;;;;;;7.00;4.40;;;;;;;22.39;50.79;100131.60;110746;1210;139875;-63
2023/07/16 03:59:54;;;;;;;5.40;4.10;;;;;;;22.42;51.32;100138.44;110807;1212;100285;-63
2023/07/16 04:02:19;;;;;;;9.60;4.80;;;;;;;22.48;51.82;100138.52;110798;1212;139612;-63
2023/07/16 04:04:44;;;;;;;4.30;3.90;;;;;;;22.59;52.32;100145.92;110819;1209;99044;-63
2023/07/16 04:07:09;;;;;;;6.90;4.10;;;;;;;22.68;52.52;100146.27;110992;1209;99072;-64
2023/07/16 04:09:38;;;;;;;7.00;4.30;;;;;;;22.76;52.85;100150.70;110729;1212;140184;-63
2023/07/16 04:12:05;;;;;;;13.00;4.30;;;;;;;22.87;53.01;100158.19;110970;1209;97900;-63
2023/07/16 04:14:30;;;;;;;6.70;4.30;;;;;;;22.98;53.27;100164.02;110857;1212;139901;-63
2023/07/16 04:16:55;;;;;;;11.80;4.60;;;;;;;23.07;53.24;100163.66;110878;1212;99098;-63
2023/07/16 04:19:20;;;;;;;5.50;3.70;;;;;;;23.14;53.37;100165.98;110905;1209;99082;-63
2023/07/16 04:21:45;;;;;;;13.70;4.20;;;;;;;23.23;53.46;100168.44;110675;1209;138522;-63
2023/07/16 04:24:11;;;;;;;8.40;4.00;;;;;;;23.33;53.27;100164.52;110977;1212;98959;-63
2023/07/16 04:26:36;;;;;;;6.90;4.10;;;;;;;23.41;53.11;100174.80;110826;1212;140070;-63
2023/07/16 04:29:01;;;;;;;4.40;3.90;;;;;;;23.46;53.30;100177.87;110856;1210;98997;-63
2023/07/16 04:31:27;;;;;;;7.60;4.10;;;;;;;23.51;53.05;100182.27;110759;1212;139037;-63
2023/07/16 04:33:52;;;;;;;6.40;3.80;;;;;;;23.54;52.92;100186.87;110853;1212;98947;-63
2023/07/16 04:36:17;;;;;;;5.70;4.00;;;;;;;23.58;53.04;100189.23;110962;1212;98985;-63
2023/07/16 04:38:42;;;;;;;10.30;4.20;;;;;;;23.62;52.91;100196.50;110778;1209;138755;-63
2023/07/16 04:41:08;;;;;;;5.20;3.70;;;;;;;23.65;52.74;100188.52;110900;1208;100803;-64
2023/07/16 04:43:33;;;;;;;6.50;4.50;;;;;;;23.69;52.49;100199.79;110728;1208;138582;-63
2023/07/16 04:45:58;;;;;;;9.40;4.50;;;;;;;23.72;52.64;100204.91;110921;1210;99004;-63
2023/07/16 04:48:25;;;;;;;9.60;4.10;;;;;;;23.77;52.55;100203.68;110825;1209;99047;-64
2023/07/16 04:50:52;;;;;;;5.60;3.80;;;;;;;23.84;52.31;100200.05;110631;1212;138469;-63
2023/07/16 04:53:18;;;;;;;3.70;3.30;;;;;;;23.89;52.41;100196.23;110842;1209;99050;-63
2023/07/16 04:55:44;;;;;;;8.10;3.90;;;;;;;23.96;52.44;100192.90;110780;1212;139525;-64
2023/07/16 04:58:11;;;;;;;8.00;3.70;;;;;;;24.05;52.27;100194.86;110948;1208;97944;-64
2023/07/16 05:00:37;;;;;;;3.50;3.20;;;;;;;24.11;52.13;100198.02;110786;1209;98942;-63
2023/07/16 05:03:02;;;;;;;14.80;3.90;;;;;;;24.18;52.08;100203.62;110586;1212;139649;-63
2023/07/16 05:05:27;;;;;;;9.10;3.90;;;;;;;24.25;51.86;100215.71;110980;1212;98928;-63
2023/07/16 05:07:53;;;;;;;8.40;3.20;;;;;;;24.31;51.76;100228.39;110695;1212;139905;-63
2023/07/16 05:10:18;;;;;;;6.30;3.40;;;;;;;24.38;51.69;100241.67;110927;1209;98922;-63
2023/07/16 05:12:43;;;;;;;5.00;3.10;;;;;;;24.44;51.67;100237.79;110887;1212;98982;-63
2023/07/16 05:15:09;;;;;;;5.60;3.30;;;;;;;24.50;51.77;100246.38;110641;1213;138822;-62
2023/07/16 05:17:34;;;;;;;6.50;2.80;;;;;;;24.57;51.96;100245.96;111019;1214;99582;-62
2023/07/16 05:20:00;;;;;;;9.80;2.70;;;;;;;24.64;51.89;100255.81;110660;1209;138466;-62
2023/07/16 05:22:25;;;;;;;4.20;3.10;;;;;;;24.70;51.92;100252.98;111008;1208;99923;-62
2023/07/16 05:24:50;;;;;;;3.70;2.90;;;;;;;24.75;51.83;100261.91;110878;1212;99023;-62
2023/07/16 05:27:16;;;;;;;21.30;4.20;;;;;;;24.80;51.71;100263.73;110824;1209;138415;-62
2023/07/16 05:29:41;;;;;;;9.90;3.00;;;;;;;24.86;51.90;100277.42;110762;1212;99082;-62
2023/07/16 05:32:07;;;;;;;5.10;2.40;;;;;;;24.86;51.75;100272.39;110803;1209;138659;-62
2023/07/16 05:34:33;;;;;;;7.00;2.70;;;;;;;24.85;51.85;100276.16;110915;1209;102314;-62
2023/07/16 05:36:58;;;;;;;11.90;2.40;;;;;;;24.91;52.08;100291.42;110804;1212;99558;-62
2023/07/16 05:39:24;;;;;;;5.70;2.60;;;;;;;24.97;52.12;100303.27;110712;1212;139777;-62
2023/07/16 05:41:49;;;;;;;6.30;2.50;;;;;;;25.06;52.07;100293.55;110846;1212;99124;-62
2023/07/16 05:44:14;;;;;;;7.90;2.60;;;;;;;25.14;52.18;100306.87;110767;1212;138193;-63
2023/07/16 05:46:40;;;;;;;5.00;2.40;;;;;;;25.15;52.15;100306.87;110923;1210;99026;-62
2023/07/16 05:49:05;;;;;;;7.50;2.60;;;;;;;25.20;52.38;100305.51;110847;1212;99041;-62
2023/07/16 05:51:30;;;;;;;11.40;2.70;;;;;;;25.28;52.10;100308.98;110760;1209;138966;-62
2023/07/16 05:53:55;;;;;;;10.30;2.60;;;;;;;25.33;52.35;100301.62;110875;1215;99058;-62
2023/07/16 05:56:21;;;;;;;5.70;2.60;;;;;;;25.39;51.99;100299.02;110741;1210;139856;-62
2023/07/16 05:58:46;;;;;;;3.60;2.20;;;;;;;25.49;51.88;100307.49;110902;1212;99127;-62
2023/07/16 06:01:11;;;;;;;3.40;1.90;;;;;;;25.56;51.64;100311.72;110974;1212;99429;-62
2023/07/16 06:03:37;;;;;;;5.30;2.20;;;;;;;25.58;51.49;100305.41;110783;1212;138135;-62
2023/07/16 06:06:02;;;;;;;10.10;2.50;;;;;;;25.63;51.39;100306.40;110837;1212;99047;-63
2023/07/16 06:08:28;;;;;;;2.60;2.00;;;;;;;25.66;51.29;100309.89;110749;1209;138894;-63
2023/07/16 06:10:53;;;;;;;5.00;2.40;;;;;;;25.67;51.23;100316.41;110892;1209;98995;-63
2023/07/16 06:13:18;;;;;;;2.70;2.00;;;;;;;25.69;51.16;100314.52;110781;1209;99096;-64
2023/07/16 06:15:43;;;;;;;4.90;2.40;;;;;;;25.70;50.87;100313.09;110748;1225;140362;-62
2023/07/16 06:18:09;;;;;;;4.20;2.10;;;;;;;25.70;50.89;100304.64;110755;1209;98949;-63
2023/07/16 06:20:35;;;;;;;3.40;1.60;;;;;;;25.74;50.89;100309.69;110629;1209;138768;-63
2023/07/16 06:23:00;;;;;;;3.00;1.90;;;;;;;25.79;50.83;100308.59;110744;1212;98957;-63
2023/07/16 06:25:25;;;;;;;2.30;2.10;;;;;;;25.84;50.79;100303.67;110597;1209;141647;-63
2023/07/16 06:27:51;;;;;;;2.30;2.00;;;;;;;25.89;50.78;100312.21;110790;1209;99050;-63
2023/07/16 06:30:16;;;;;;;3.50;1.80;;;;;;;25.92;50.52;100315.23;110812;1210;99067;-62
2023/07/16 06:32:41;;;;;;;3.40;1.90;;;;;;;25.88;50.51;100322.38;110595;1212;138811;-62
2023/07/16 06:35:08;;;;;;;2.10;1.40;;;;;;;25.90;50.43;100332.98;110821;1212;99066;-63
2023/07/16 06:37:33;;;;;;;4.80;2.00;;;;;;;25.94;50.23;100330.17;111987;1212;138152;-63
2023/07/16 06:39:58;;;;;;;3.00;1.60;;;;;;;25.97;50.35;100342.48;110702;1212;99034;-63
2023/07/16 06:42:23;;;;;;;2.30;1.60;;;;;;;25.99;50.24;100343.31;110832;1209;100304;-63
2023/07/16 06:44:49;;;;;;;6.70;2.50;;;;;;;25.92;50.02;100339.36;110629;1208;140767;-63
2023/07/16 06:47:15;;;;;;;3.00;1.60;;;;;;;25.84;50.04;100349.39;110799;1209;99271;-62
2023/07/16 06:49:40;;;;;;;1.60;1.40;;;;;;;25.75;50.11;100347.13;110619;1209;139662;-62
2023/07/16 06:52:06;;;;;;;3.20;2.30;;;;;;;25.68;50.20;100348.67;110844;1210;99681;-63
2023/07/16 06:54:31;;;;;;;3.30;1.60;;;;;;;25.63;50.31;100355.77;111044;1212;98906;-61
2023/07/16 06:56:56;;;;;;;2.80;1.70;;;;;;;25.60;50.27;100357.41;110542;1209;139916;-61
2023/07/16 06:59:22;;;;;;;2.20;1.70;;;;;;;25.55;50.47;100359.06;110819;1212;99041;-62
2023/07/16 07:01:47;;;;;;;1.80;1.70;;;;;;;25.49;50.50;100358.05;110607;1212;138257;-61
2023/07/16 07:04:12;;;;;;;2.00;1.50;;;;;;;25.48;50.73;100363.41;110726;1209;99040;-61
2023/07/16 07:06:38;;;;;;;2.60;1.40;;;;;;;25.46;50.64;100370.30;110693;1209;99068;-61
2023/07/16 07:09:03;;;;;;;3.50;1.50;;;;;;;25.45;50.61;100375.48;110667;1209;138026;-61
2023/07/16 07:11:28;;;;;;;4.70;1.50;;;;;;;25.47;50.74;100382.06;110695;1212;99092;-61
2023/07/16 07:13:54;;;;;;;5.10;2.10;;;;;;;25.47;50.81;100399.39;110578;1208;139739;-61
2023/07/16 07:16:19;;;;;;;3.70;1.80;;;;;;;25.45;50.68;100406.01;110586;1212;99659;-61
2023/07/16 07:18:45;;;;;;;1.90;1.50;;;;;;;25.41;50.92;100424.73;110633;1209;99445;-62
2023/07/16 07:21:10;;;;;;;2.40;1.50;;;;;;;25.34;51.12;100422.58;110608;1210;140092;-61
2023/07/16 07:23:35;;;;;;;1.50;1.40;;;;;;;25.28;50.98;100409.40;110841;1210;99022;-61
2023/07/16 07:26:01;;;;;;;1.30;1.20;;;;;;;25.23;51.02;100401.86;110647;1208;138708;-61
2023/07/16 07:28:26;;;;;;;3.40;1.20;;;;;;;25.22;51.20;100397.23;110779;1210;98979;-62
2023/07/16 07:30:52;;;;;;;1.60;1.40;;;;;;;25.24;51.27;100395.02;110746;1212;99155;-61
2023/07/16 07:33:17;;;;;;;2.40;1.70;;;;;;;25.25;51.35;100398.55;110687;1210;138824;-62
2023/07/16 07:35:42;;;;;;;1.40;1.30;;;;;;;25.31;51.43;100397.67;110898;1212;102388;-62
2023/07/16 07:38:07;;;;;;;4.50;1.90;;;;;;;25.35;51.57;100406.46;110657;1212;138521;-62
2023/07/16 07:40:32;;;;;;;3.20;1.70;;;;;;;25.36;51.65;100401.49;110737;1210;99007;-62
2023/07/16 07:42:58;;;;;;;3.40;1.30;;;;;;;25.44;51.67;100410.19;110787;1209;100403;-62
2023/07/16 07:45:24;;;;;;;1.90;1.70;;;;;;;25.56;51.50;100417.27;110691;1212;138589;-61
2023/07/16 07:47:49;;;;;;;4.70;1.90;;;;;;;25.65;51.44;100413.17;110824;1212;99792;-61
2023/07/16 07:50:15;;;;;;;4.10;1.70;;;;;;;25.74;51.40;100409.25;111065;1210;138779;-62
2023/07/16 07:52:40;;;;;;;4.20;1.70;;;;;;;25.89;51.24;100407.40;110635;1212;99051;-61
2023/07/16 07:55:06;;;;;;;1.90;1.80;;;;;;;25.99;50.99;100411.45;110809;1212;99214;-61
2023/07/16 07:57:31;;;;;;;4.70;1.80;;;;;;;25.99;50.92;100423.88;110610;1210;139358;-61
2023/07/16 07:59:57;;;;;;;2.50;1.60;;;;;;;25.95;50.83;100429.14;110769;1212;99156;-62
2023/07/16 08:02:24;;;;;;;1.70;1.60;;;;;;;25.87;50.80;100440.02;110752;1210;138121;-63
2023/07/16 08:04:55;;;;;;;6.10;2.00;;;;;;;25.79;50.81;100449.67;110684;1210;99180;-63
2023/07/16 08:07:21;;;;;;;1.60;1.40;;;;;;;25.69;50.80;100449.35;110821;1209;99015;-65
2023/07/16 08:09:47;;;;;;;1.80;1.70;;;;;;;25.61;50.92;100458.25;110903;1209;98930;-61
2023/07/16 08:12:13;;;;;;;4.10;1.50;;;;;;;25.55;50.92;100474.70;110862;1212;98949;-61
2023/07/16 08:14:39;;;;;;;3.60;1.40;;;;;;;25.45;51.03;100475.60;110797;1209;140392;-65
2023/07/16 08:17:04;;;;;;;1.30;1.20;;;;;;;25.35;50.94;100490.55;110804;1212;99075;-61
2023/07/16 08:19:30;;;;;;;2.20;1.20;;;;;;;25.29;51.08;100512.21;110740;1209;139374;-62
2023/07/16 08:21:55;;;;;;;2.40;1.40;;;;;;;25.10;51.41;100519.07;110869;1212;99929;-60
2023/07/16 08:24:21;;;;;;;3.90;1.20;;;;;;;24.76;52.40;100516.59;110805;1209;99123;-60
2023/07/16 08:26:46;;;;;;;2.80;1.30;;;;;;;24.37;53.38;100512.98;110846;1212;139716;-62
2023/07/16 08:29:11;;;;;;;7.20;1.70;;;;;;;24.10;53.77;100512.88;110915;1209;98965;-62
2023/07/16 08:31:36;;;;;;;2.20;1.60;;;;;;;23.86;54.39;100516.95;110749;1210;139846;-61
2023/07/16 08:34:02;;;;;;;8.40;2.00;;;;;;;23.64;55.07;100514.73;110850;1209;99018;-61
2023/07/16 08:36:27;;;;;;;4.00;1.60;;;;;;;23.50;55.81;100520.70;110852;1212;99044;-62
2023/07/16 08:38:52;;;;;;;2.50;1.50;;;;;;;23.39;56.61;100515.09;110784;1212;139062;-62
2023/07/16 08:41:17;;;;;;;7.20;1.40;;;;;;;23.27;56.81;100518.45;110731;1212;99101;-62
2023/07/16 08:43:47;;;;;;;2.50;2.00;;;;;;;23.19;57.36;100513.21;110706;1208;138988;-62
2023/07/16 08:46:13;;;;;;;3.30;1.90;;;;;;;23.16;57.83;100507.77;111053;1212;103740;-61
2023/07/16 08:48:38;;;;;;;2.80;1.70;;;;;;;23.09;58.49;100504.39;110871;1209;99108;-61
2023/07/16 08:51:06;;;;;;;8.50;2.00;;;;;;;23.00;59.14;100505.30;110610;1209;139531;-60
2023/07/16 08:53:31;;;;;;;3.00;1.80;;;;;;;22.88;60.00;100502.60;110746;1209;99341;-61
2023/07/16 08:55:57;;;;;;;2.60;1.70;;;;;;;22.72;60.22;100502.19;110643;1210;139346;-62
2023/07/16 08:58:24;;;;;;;2.90;2.10;;;;;;;22.59;60.72;100509.77;110986;1208;98951;-62
2023/07/16 09:00:51;;;;;;;2.80;2.00;;;;;;;22.44;61.61;100506.55;110766;1224;98984;-62
2023/07/16 09:03:17;;;;;;;5.30;2.00;;;;;;;22.28;61.48;100497.09;110592;1210;139244;-63
2023/07/16 09:05:44;;;;;;;3.20;2.00;;;;;;;22.11;61.91;100478.36;110861;1209;98932;-62
2023/07/16 09:08:09;;;;;;;2.60;2.00;;;;;;;21.91;62.38;100479.09;110725;1212;139483;-62
2023/07/16 09:10:35;;;;;;;3.60;2.20;;;;;;;21.74;64.02;100483.42;110861;1210;98955;-62
2023/07/16 09:13:01;;;;;;;5.00;2.30;;;;;;;21.54;64.75;100483.97;110863;1212;99170;-61
2023/07/16 09:15:28;;;;;;;7.90;2.40;;;;;;;21.33;65.14;100504.50;110728;1212;138647;-62
2023/07/16 09:17:54;;;;;;;3.80;2.00;;;;;;;21.16;65.14;100520.36;110799;1212;99543;-62
2023/07/16 09:20:21;;;;;;;8.60;2.70;;;;;;;21.04;65.80;100529.55;110772;1209;139780;-61
2023/07/16 09:22:47;;;;;;;5.10;2.40;;;;;;;20.80;66.83;100537.17;110758;1212;98926;-65
2023/07/16 09:25:13;;;;;;;2.40;2.00;;;;;;;20.56;68.13;100524.20;110862;1208;99004;-65
2023/07/16 09:27:38;;;;;;;3.10;2.20;;;;;;;20.46;69.05;100527.28;110651;1212;138673;-65
2023/07/16 09:30:05;;;;;;;4.50;2.20;;;;;;;20.52;70.43;100525.89;110796;1212;103160;-66
2023/07/16 09:32:39;;;;;;;2.90;1.90;;;;;;;20.55;70.66;100519.41;110749;1212;139947;-66
2023/07/16 09:35:12;;;;;;;2.60;2.30;;;;;;;20.68;71.13;100516.65;110640;1208;104352;-66
2023/07/16 09:37:38;;;;;;;3.00;2.20;;;;;;;20.90;71.51;100517.00;110720;1212;140798;-66
2023/07/16 09:40:09;;;;;;;4.80;1.90;;;;;;;21.07;71.86;100508.27;110766;1209;99080;-67
2023/07/16 09:42:39;;;;;;;5.80;1.90;;;;;;;21.16;72.22;100494.19;110818;1212;98250;-67
2023/07/16 09:45:17;;;;;;;2.40;2.20;;;;;;;21.26;72.51;100500.36;110622;1213;140613;-67
2023/07/16 09:47:43;;;;;;;2.20;2.00;;;;;;;21.33;72.77;100512.63;110643;1212;112974;-66
2023/07/16 09:50:09;;;;;;;4.60;2.20;;;;;;;21.34;73.11;100509.13;110557;1212;139531;-66
2023/07/16 09:52:34;;;;;;;1.90;1.70;;;;;;;21.29;73.36;100512.27;111266;1209;98935;-67
2023/07/16 09:55:02;;;;;;;3.40;1.60;;;;;;;21.23;73.47;100497.89;110788;1208;98957;-67
2023/07/16 09:57:34;;;;;;;2.00;1.80;;;;;;;21.23;73.82;100492.64;110627;1210;140345;-66
2023/07/16 10:00:06;;;;;;;2.10;1.90;;;;;;;21.27;74.01;100492.26;110693;1212;98813;-68
2023/07/16 10:02:36;;;;;;;3.00;2.10;;;;;;;21.36;74.27;100499.60;110724;1210;139234;-67
2023/07/16 10:05:23;;;;;;;2.50;2.00;;;;;;;21.53;74.46;100501.67;110753;1212;99082;-65
2023/07/16 10:07:52;;;;;;;3.30;2.00;;;;;;;21.65;74.73;100495.50;110574;1208;140517;-66
2023/07/16 10:10:17;;;;;;;4.40;1.90;;;;;;;21.73;74.60;100493.67;110784;1212;104307;-65
2023/07/16 10:12:43;;;;;;;5.80;2.00;;;;;;;21.79;74.88;100497.67;110775;1208;98930;-66
2023/07/16 10:15:11;;;;;;;5.40;1.80;;;;;;;21.83;74.86;100497.37;110725;1212;140130;-65
2023/07/16 10:17:37;;;;;;;6.90;1.70;;;;;;;21.90;74.81;100502.45;110806;1212;99168;-65
2023/07/16 10:20:07;;;;;;;3.00;1.90;;;;;;;21.99;74.99;100502.41;110469;1209;139458;-66
2023/07/16 10:22:35;;;;;;;3.40;2.00;;;;;;;22.06;74.81;100505.40;110826;1212;99047;-67
2023/07/16 10:25:02;;;;;;;3.00;2.20;;;;;;;22.15;74.97;100505.86;110752;1212;99228;-64
2023/07/16 10:27:34;;;;;;;2.40;1.90;;;;;;;22.22;74.99;100508.61;110630;1208;141459;-64
2023/07/16 10:30:04;;;;;;;2.10;1.30;;;;;;;22.43;75.01;100514.12;110803;1212;99132;-64
2023/07/16 10:32:31;;;;;;;4.00;1.80;;;;;;;22.60;74.99;100516.93;110556;1212;140584;-66
2023/07/16 10:34:58;;;;;;;3.20;1.80;;;;;;;22.90;75.26;100517.34;110675;1210;99022;-67
2023/07/16 10:37:26;;;;;;;1.90;1.40;;;;;;;23.19;74.68;100514.54;112781;1208;139891;-62
2023/07/16 10:39:54;;;;;;;2.20;1.80;;;;;;;23.47;74.44;100518.50;112861;1208;97036;-65
2023/07/16 10:42:20;;;;;;;2.10;1.90;;;;;;;23.74;73.87;100520.54;112036;1208;97653;-64
2023/07/16 10:44:50;;;;;;;5.30;1.60;;;;;;;23.87;73.45;100516.30;110596;1212;139496;-62
2023/07/16 10:47:35;;;;;;;1.40;1.30;;;;;;;23.95;72.83;100508.92;110742;1212;101972;-66
2023/07/16 10:50:04;;;;;;;2.30;1.80;;;;;;;24.14;72.48;100514.08;110581;1209;140354;-67
2023/07/16 10:52:30;;;;;;;2.50;1.90;;;;;;;24.36;71.65;100519.13;110763;1208;98978;-66
2023/07/16 10:54:57;;;;;;;4.00;1.50;;;;;;;24.51;71.20;100506.27;110678;1212;99091;-64
2023/07/16 10:57:23;;;;;;;3.50;1.60;;;;;;;24.62;70.58;100509.10;110578;1209;140829;-66
2023/07/16 10:59:50;;;;;;;2.80;1.40;;;;;;;24.81;70.15;100500.70;110801;1208;99055;-64
2023/07/16 11:02:16;;;;;;;2.80;1.30;;;;;;;25.04;69.83;100506.73;110537;1212;140088;-64
2023/07/16 11:04:43;;;;;;;2.50;1.50;;;;;;;25.19;69.08;100504.92;110650;1212;99472;-66
2023/07/16 11:07:13;;;;;;;2.10;1.70;;;;;;;25.34;68.70;100500.33;111165;1208;99004;-66
2023/07/16 11:09:46;;;;;;;2.00;1.30;;;;;;;25.65;67.78;100495.17;110504;1209;139066;-64